Time;durP1;ratioP1;P1;durP2;ratioP2;P2;SDS_P1;SDS_P2;PMS_P1;PMS_P2;Temp;Humidity;BMP_temperature;BMP_pressure;BME280_temperature;BME280_humidity;BME280_pressure;Samples;Min_cycle;Max_cycle;Signal;HPM_P1;HPM_P2
2024/02/19 00:00:30;;;;;;;0.60;0.60;;;;;;;-147.86;100.00;-17609.17;105923;1252;60431;-54
2024/02/19 00:03:02;;;;;;;0.80;0.60;;;;;;;-147.86;100.00;-17609.17;105931;1256;73754;-53
2024/02/19 00:05:30;;;;;;;3.00;0.60;;;;;;;-147.86;100.00;-17609.17;105917;1256;64705;-56
2024/02/19 00:07:57;;;;;;;1.00;1.00;;;;;;;-147.86;100.00;-17609.17;105956;1256;72599;-54
2024/02/19 00:10:24;;;;;;;0.80;0.80;;;;;;;-147.86;100.00;-17609.17;105923;1253;60667;-55
2024/02/19 00:12:51;;;;;;;0.90;0.90;;;;;;;-147.86;100.00;-17609.17;105956;1253;60470;-55
2024/02/19 00:15:18;;;;;;;0.80;0.70;;;;;;;-147.86;100.00;-17609.17;105900;1255;73938;-56
2024/02/19 00:17:46;;;;;;;1.40;1.00;;;;;;;-147.86;100.00;-17609.17;105971;1256;64733;-53
2024/02/19 00:20:13;;;;;;;0.60;0.60;;;;;;;-147.86;100.00;-17609.17;105920;1253;72626;-56
2024/02/19 00:22:40;;;;;;;0.80;0.80;;;;;;;-147.86;100.00;-17609.17;105887;1256;61166;-57
2024/02/19 00:25:08;;;;;;;1.10;0.90;;;;;;;-147.86;100.00;-17609.17;105887;1251;60495;-54
2024/02/19 00:27:36;;;;;;;0.60;0.60;;;;;;;-147.86;100.00;-17609.17;105963;1256;72681;-55
2024/02/19 00:30:05;;;;;;;0.80;0.80;;;;;;;-147.86;100.00;-17609.17;105936;1252;64425;-55
2024/02/19 00:32:32;;;;;;;1.40;1.00;;;;;;;-147.86;100.00;-17609.17;105897;1253;72672;-48
2024/02/19 00:34:59;;;;;;;0.90;0.80;;;;;;;-147.86;100.00;-17609.17;105963;1256;60565;-50
2024/02/19 00:37:27;;;;;;;0.80;0.70;;;;;;;-147.86;100.00;-17609.17;105934;1251;60546;-54
2024/02/19 00:39:53;;;;;;;2.60;0.70;;;;;;;-147.86;100.00;-17609.17;105883;1255;73860;-51
2024/02/19 00:42:20;;;;;;;0.50;0.50;;;;;;;-147.86;100.00;-17609.17;105937;1256;64547;-54
2024/02/19 00:44:47;;;;;;;1.00;0.90;;;;;;;-147.86;100.00;-17609.17;105970;1251;72655;-50
2024/02/19 00:47:14;;;;;;;1.10;0.80;;;;;;;-147.86;100.00;-17609.17;105931;1255;60448;-56
2024/02/19 00:49:42;;;;;;;1.50;1.10;;;;;;;-147.86;100.00;-17609.17;105960;1254;60546;-56
2024/02/19 00:52:09;;;;;;;0.80;0.80;;;;;;;-147.86;100.00;-17609.17;105969;1253;73676;-57
2024/02/19 00:54:36;;;;;;;1.10;0.90;;;;;;;-147.86;100.00;-17609.17;105975;1255;65188;-53
2024/02/19 00:57:03;;;;;;;0.60;0.60;;;;;;;-147.86;100.00;-17609.17;105888;1252;72692;-54
2024/02/19 00:59:30;;;;;;;1.90;0.70;;;;;;;-147.86;100.00;-17609.17;105914;1253;60369;-53
2024/02/19 01:01:57;;;;;;;1.40;0.90;;;;;;;-147.86;100.00;-17609.17;105917;1253;60414;-55
2024/02/19 01:04:25;;;;;;;1.00;0.80;;;;;;;-147.86;100.00;-17609.17;105924;1255;73812;-55
2024/02/19 01:06:52;;;;;;;0.90;0.70;;;;;;;-147.86;100.00;-17609.17;105925;1255;64626;-53
2024/02/19 01:09:19;;;;;;;0.80;0.80;;;;;;;-147.86;100.00;-17609.17;105919;1251;72495;-56
2024/02/19 01:11:46;;;;;;;0.60;0.60;;;;;;;-147.86;100.00;-17609.17;105858;1256;61232;-57
2024/02/19 01:14:13;;;;;;;1.00;0.80;;;;;;;-147.86;100.00;-17609.17;105921;1251;60544;-52
2024/02/19 01:16:41;;;;;;;0.80;0.70;;;;;;;-147.86;100.00;-17609.17;105953;1252;73818;-51
2024/02/19 01:19:08;;;;;;;0.80;0.70;;;;;;;-147.86;100.00;-17609.17;105962;1252;64477;-57
2024/02/19 01:21:36;;;;;;;2.10;1.00;;;;;;;-147.86;100.00;-17609.17;105874;1251;72499;-56
2024/02/19 01:24:03;;;;;;;2.30;0.70;;;;;;;-147.86;100.00;-17609.17;105911;1251;60545;-54
2024/02/19 01:26:30;;;;;;;0.80;0.80;;;;;;;-147.86;100.00;-17609.17;105901;1253;60561;-57
2024/02/19 01:28:57;;;;;;;3.70;1.00;;;;;;;-147.86;100.00;-17609.17;105914;1253;73695;-55
2024/02/19 01:31:24;;;;;;;1.30;0.80;;;;;;;-147.86;100.00;-17609.17;105866;1255;64554;-57
2024/02/19 01:33:51;;;;;;;1.50;0.90;;;;;;;-147.86;100.00;-17609.17;105920;1251;72599;-55
2024/02/19 01:36:18;;;;;;;1.40;0.70;;;;;;;-147.86;100.00;-17609.17;105886;1256;60415;-53
2024/02/19 01:38:45;;;;;;;1.80;0.90;;;;;;;-147.86;100.00;-17609.17;105939;1251;60530;-53
2024/02/19 01:41:12;;;;;;;0.50;0.50;;;;;;;-147.86;100.00;-17609.17;105893;1256;73837;-54
2024/02/19 01:43:39;;;;;;;1.70;0.90;;;;;;;-147.86;100.00;-17609.17;105910;1255;65168;-59
2024/02/19 01:46:06;;;;;;;0.90;0.90;;;;;;;-147.86;100.00;-17609.17;105930;1255;72726;-57
2024/02/19 01:48:33;;;;;;;4.00;0.90;;;;;;;-147.86;100.00;-17609.17;105906;1256;60358;-57
2024/02/19 01:51:00;;;;;;;1.20;0.80;;;;;;;-147.86;100.00;-17609.17;105838;1253;60530;-52
2024/02/19 01:53:27;;;;;;;2.50;1.20;;;;;;;-147.86;100.00;-17609.17;105906;1256;73833;-54
2024/02/19 01:55:54;;;;;;;1.50;0.90;;;;;;;-147.86;100.00;-17609.17;105936;1256;63606;-56
2024/02/19 01:58:21;;;;;;;2.30;1.30;;;;;;;-147.86;100.00;-17609.17;105918;1253;72659;-53
2024/02/19 02:00:48;;;;;;;0.80;0.60;;;;;;;-147.86;100.00;-17609.17;105770;1258;60975;-55
2024/02/19 02:03:22;;;;;;;1.10;1.00;;;;;;;-147.86;100.00;-17609.17;105980;1254;60557;-54
2024/02/19 02:05:49;;;;;;;1.60;0.90;;;;;;;-147.86;100.00;-17609.17;105859;1256;72870;-52
2024/02/19 02:08:16;;;;;;;1.50;0.90;;;;;;;-147.86;100.00;-17609.17;105913;1255;64713;-55
2024/02/19 02:10:43;;;;;;;0.60;0.60;;;;;;;-147.86;100.00;-17609.17;105892;1252;72495;-53
2024/02/19 02:13:11;;;;;;;0.90;0.70;;;;;;;-147.86;100.00;-17609.17;105869;1253;60433;-54
2024/02/19 02:15:38;;;;;;;0.50;0.50;;;;;;;-147.86;100.00;-17609.17;105921;1253;60473;-53
2024/02/19 02:18:05;;;;;;;0.80;0.70;;;;;;;-147.86;100.00;-17609.17;105883;1252;73693;-55
2024/02/19 02:20:32;;;;;;;1.30;0.80;;;;;;;-147.86;100.00;-17609.17;105940;1256;64594;-53
2024/02/19 02:23:00;;;;;;;1.00;0.80;;;;;;;-147.86;100.00;-17609.17;105907;1253;72692;-54
2024/02/19 02:25:27;;;;;;;1.00;0.80;;;;;;;-147.86;100.00;-17609.17;105742;1257;60937;-57
2024/02/19 02:27:54;;;;;;;1.40;0.70;;;;;;;-147.86;100.00;-17609.17;105944;1251;60556;-53
2024/02/19 02:30:21;;;;;;;0.70;0.70;;;;;;;-147.86;100.00;-17609.17;105879;1255;73949;-52
2024/02/19 02:32:48;;;;;;;1.10;0.60;;;;;;;-147.86;100.00;-17609.17;105718;1257;64514;-54
2024/02/19 02:35:15;;;;;;;1.30;0.70;;;;;;;-147.86;100.00;-17609.17;105940;1252;72663;-55
2024/02/19 02:37:43;;;;;;;1.60;0.80;;;;;;;-147.86;100.00;-17609.17;105895;1256;60371;-52
2024/02/19 02:40:10;;;;;;;0.90;0.80;;;;;;;-147.86;100.00;-17609.17;105909;1253;60492;-53
2024/02/19 02:42:37;;;;;;;0.70;0.70;;;;;;;-147.86;100.00;-17609.17;105916;1253;73806;-54
2024/02/19 02:45:04;;;;;;;0.80;0.70;;;;;;;-147.86;100.00;-17609.17;105940;1256;64645;-55
2024/02/19 02:47:33;;;;;;;1.70;0.90;;;;;;;-147.86;100.00;-17609.17;105888;1255;72531;-55
2024/02/19 02:50:00;;;;;;;1.10;0.90;;;;;;;-147.86;100.00;-17609.17;105931;1256;60548;-56
2024/02/19 02:52:27;;;;;;;2.10;0.80;;;;;;;-147.86;100.00;-17609.17;105919;1252;60603;-52
2024/02/19 02:54:54;;;;;;;2.20;1.10;;;;;;;-147.86;100.00;-17609.17;105949;1252;73731;-47
2024/02/19 02:57:21;;;;;;;1.00;0.90;;;;;;;-147.86;100.00;-17609.17;105933;1253;63193;-52
2024/02/19 02:59:48;;;;;;;2.10;1.10;;;;;;;-147.86;100.00;-17609.17;105894;1254;72640;-54
2024/02/19 03:02:15;;;;;;;1.70;0.80;;;;;;;-147.86;100.00;-17609.17;105889;1256;61129;-52
2024/02/19 03:04:42;;;;;;;0.60;0.60;;;;;;;-147.86;100.00;-17609.17;105934;1252;60550;-53
2024/02/19 03:07:10;;;;;;;1.30;1.10;;;;;;;-147.86;100.00;-17609.17;105876;1251;73755;-50
2024/02/19 03:09:37;;;;;;;1.20;0.60;;;;;;;-147.86;100.00;-17609.17;105912;1256;64661;-52
2024/02/19 03:12:05;;;;;;;1.30;0.80;;;;;;;-147.86;100.00;-17609.17;105778;1251;72524;-51
2024/02/19 03:14:33;;;;;;;3.00;1.00;;;;;;;-147.86;100.00;-17609.17;105838;1254;60436;-56
2024/02/19 03:17:00;;;;;;;1.40;0.80;;;;;;;-147.86;100.00;-17609.17;105898;1251;60479;-53
2024/02/19 03:19:27;;;;;;;0.70;0.70;;;;;;;-147.86;100.00;-17609.17;105872;1253;73847;-52
2024/02/19 03:21:56;;;;;;;0.60;0.60;;;;;;;-147.86;100.00;-17609.17;105917;1256;64425;-55
2024/02/19 03:24:23;;;;;;;0.50;0.50;;;;;;;-147.86;100.00;-17609.17;105928;1251;72637;-53
2024/02/19 03:26:51;;;;;;;1.10;0.70;;;;;;;-147.86;100.00;-17609.17;105892;1255;60424;-52
2024/02/19 03:29:18;;;;;;;1.10;0.60;;;;;;;-147.86;100.00;-17609.17;105953;1253;60432;-58
2024/02/19 03:31:46;;;;;;;1.30;1.00;;;;;;;-147.86;100.00;-17609.17;105956;1256;72792;-53
2024/02/19 03:34:13;;;;;;;0.60;0.50;;;;;;;-147.86;100.00;-17609.17;105922;1256;63425;-57
2024/02/19 03:36:50;;;;;;;2.20;0.70;;;;;;;-147.86;100.00;-17609.17;105871;1251;72698;-56
2024/02/19 03:39:17;;;;;;;2.30;0.40;;;;;;;-147.86;100.00;-17609.17;105792;1257;60435;-54
2024/02/19 03:41:44;;;;;;;0.90;0.60;;;;;;;-147.86;100.00;-17609.17;105923;1253;60544;-52
2024/02/19 03:44:11;;;;;;;1.00;0.90;;;;;;;-147.86;100.00;-17609.17;105971;1256;73687;-54
2024/02/19 03:46:38;;;;;;;1.20;0.80;;;;;;;-147.86;100.00;-17609.17;105853;1256;64397;-55
2024/02/19 03:49:05;;;;;;;2.10;0.60;;;;;;;-147.86;100.00;-17609.17;105894;1253;72618;-54
2024/02/19 03:51:33;;;;;;;2.00;0.70;;;;;;;-147.86;100.00;-17609.17;105934;1255;61134;-57
2024/02/19 03:54:00;;;;;;;1.10;0.40;;;;;;;-147.86;100.00;-17609.17;105911;1253;60613;-51
2024/02/19 03:56:27;;;;;;;0.50;0.50;;;;;;;-147.86;100.00;-17609.17;105896;1254;73785;-56
2024/02/19 03:58:54;;;;;;;0.40;0.40;;;;;;;-147.86;100.00;-17609.17;105772;1258;64609;-52
2024/02/19 04:01:21;;;;;;;3.10;0.50;;;;;;;-147.86;100.00;-17609.17;105959;1255;72524;-53
2024/02/19 04:03:48;;;;;;;0.50;0.50;;;;;;;-147.86;100.00;-17609.17;105913;1255;60549;-52
2024/02/19 04:06:15;;;;;;;1.90;0.50;;;;;;;-147.86;100.00;-17609.17;105895;1251;60546;-54
2024/02/19 04:08:42;;;;;;;0.50;0.50;;;;;;;-147.86;100.00;-17609.17;105908;1253;73673;-54
2024/02/19 04:11:09;;;;;;;1.10;0.60;;;;;;;-147.86;100.00;-17609.17;105868;1256;64711;-53
2024/02/19 04:13:36;;;;;;;1.80;0.80;;;;;;;-147.86;100.00;-17609.17;105783;1253;72628;-55
2024/02/19 04:16:08;;;;;;;0.60;0.60;;;;;;;-147.86;100.00;-17609.17;105877;1256;60543;-55
2024/02/19 04:18:35;;;;;;;1.50;0.90;;;;;;;-147.86;100.00;-17609.17;105958;1253;60556;-55
2024/02/19 04:21:02;;;;;;;1.10;0.70;;;;;;;-147.86;100.00;-17609.17;105916;1253;73667;-55
2024/02/19 04:23:29;;;;;;;1.10;0.60;;;;;;;-147.86;100.00;-17609.17;105903;1255;64645;-54
2024/02/19 04:25:56;;;;;;;0.60;0.60;;;;;;;-147.86;100.00;-17609.17;105901;1254;72453;-54
2024/02/19 04:28:23;;;;;;;3.20;1.00;;;;;;;-147.86;100.00;-17609.17;105909;1256;60354;-53
2024/02/19 04:30:50;;;;;;;1.20;0.70;;;;;;;-147.86;100.00;-17609.17;105861;1251;60441;-51
2024/02/19 04:33:16;;;;;;;0.90;0.90;;;;;;;-147.86;100.00;-17609.17;105866;1252;73736;-51
2024/02/19 04:35:43;;;;;;;1.10;0.80;;;;;;;-147.86;100.00;-17609.17;105879;1255;64739;-53
2024/02/19 04:38:10;;;;;;;2.00;0.80;;;;;;;-147.86;100.00;-17609.17;105902;1253;72553;-55
2024/02/19 04:40:37;;;;;;;2.70;0.80;;;;;;;-147.86;100.00;-17609.17;105900;1255;61133;-52
2024/02/19 04:43:04;;;;;;;0.80;0.70;;;;;;;-147.86;100.00;-17609.17;105925;1254;60557;-51
2024/02/19 04:45:31;;;;;;;2.90;1.10;;;;;;;-147.86;100.00;-17609.17;105863;1254;73668;-53
2024/02/19 04:47:58;;;;;;;1.00;0.90;;;;;;;-147.86;100.00;-17609.17;105913;1256;64717;-49
2024/02/19 04:51:59;;;;;;;1.30;0.70;;;;;;;-147.86;100.00;-10700.48;102691;1293;601045;-51
2024/02/19 04:54:28;;;;;;;1.20;1.00;;;;;;;-147.86;100.00;-17609.17;105007;1266;61321;-53
2024/02/19 04:56:56;;;;;;;0.70;0.60;;;;;;;-147.86;100.00;-17609.17;104854;1271;59283;-52
2024/02/19 04:59:24;;;;;;;1.00;0.90;;;;;;;-147.86;100.00;-17609.17;104795;1266;71037;-55
2024/02/19 05:01:53;;;;;;;1.70;1.00;;;;;;;-147.86;100.00;-17609.17;105300;1264;64341;-57
2024/02/19 05:04:24;;;;;;;1.30;0.90;;;;;;;-147.86;100.00;-17609.17;105218;1260;71368;-57
2024/02/19 05:06:53;;;;;;;3.00;1.10;;;;;;;-147.86;100.00;-17609.17;105319;1257;59362;-52
2024/02/19 05:09:21;;;;;;;2.20;1.00;;;;;;;-147.86;100.00;-17609.17;105557;1262;59318;-56
2024/02/19 05:11:49;;;;;;;0.60;0.60;;;;;;;-147.86;100.00;-17609.17;105578;1262;71327;-57
2024/02/19 05:14:17;;;;;;;1.40;0.70;;;;;;;-147.86;100.00;-17609.17;105520;1262;62712;-57
2024/02/19 05:16:45;;;;;;;4.60;0.70;;;;;;;-147.86;100.00;-17609.17;105485;1257;71447;-52
2024/02/19 05:19:13;;;;;;;1.20;0.60;;;;;;;-147.86;100.00;-17609.17;105625;1257;59743;-56
2024/02/19 05:21:41;;;;;;;1.10;0.80;;;;;;;-147.86;100.00;-17609.17;105565;1262;59647;-54
2024/02/19 05:24:09;;;;;;;2.10;0.80;;;;;;;-147.86;100.00;-17609.17;105540;1262;71742;-55
2024/02/19 05:26:40;;;;;;;1.80;1.00;;;;;;;-147.86;100.00;-17609.17;105552;1257;63491;-57
2024/02/19 05:29:10;;;;;;;1.50;1.00;;;;;;;-147.86;100.00;-17609.17;105573;1262;71826;-55
2024/02/19 05:31:38;;;;;;;1.10;1.00;;;;;;;-147.86;100.00;-17609.17;105534;1264;59766;-55
2024/02/19 05:34:06;;;;;;;2.20;1.30;;;;;;;-147.86;100.00;-17609.17;105552;1262;59724;-52
2024/02/19 05:36:34;;;;;;;3.20;1.30;;;;;;;-147.86;100.00;-17609.17;105552;1257;71727;-55
2024/02/19 05:39:02;;;;;;;1.50;1.10;;;;;;;-147.86;100.00;-17609.17;105540;1256;63168;-54
2024/02/19 05:41:30;;;;;;;1.50;1.10;;;;;;;-147.86;100.00;-17609.17;105531;1260;71859;-52
2024/02/19 05:43:58;;;;;;;2.00;1.00;;;;;;;-147.86;100.00;-17609.17;105488;1256;59669;-53
2024/02/19 05:46:25;;;;;;;1.10;1.00;;;;;;;-147.86;100.00;-17609.17;105555;1256;60052;-53
2024/02/19 05:48:53;;;;;;;2.10;1.30;;;;;;;-147.86;100.00;-17609.17;105504;1258;71866;-53
2024/02/19 05:51:22;;;;;;;4.60;1.40;;;;;;;-147.86;100.00;-17609.17;105578;1257;63137;-52
2024/02/19 05:53:49;;;;;;;2.20;1.50;;;;;;;-147.86;100.00;-17609.17;105528;1257;71439;-55
2024/02/19 05:56:18;;;;;;;4.70;1.50;;;;;;;-147.86;100.00;-17609.17;105502;1262;59710;-53
2024/02/19 05:58:47;;;;;;;2.80;1.80;;;;;;;-147.86;100.00;-17609.17;105560;1257;59561;-53
2024/02/19 06:01:16;;;;;;;3.00;1.70;;;;;;;-147.86;100.00;-17609.17;105571;1262;72978;-55
2024/02/19 06:03:45;;;;;;;2.80;1.80;;;;;;;-147.86;100.00;-17609.17;105538;1260;62125;-55
2024/02/19 06:06:12;;;;;;;7.10;3.60;;;;;;;-147.86;100.00;-17609.17;105527;1262;72493;-52
2024/02/19 06:08:40;;;;;;;20.80;9.80;;;;;;;-147.86;100.00;-17609.17;105528;1261;59769;-52
2024/02/19 06:11:08;;;;;;;23.00;9.60;;;;;;;-147.86;100.00;-17609.17;105489;1257;59561;-54
2024/02/19 06:13:36;;;;;;;13.40;6.10;;;;;;;-147.86;100.00;-17609.17;105521;1256;71818;-54
2024/02/19 06:16:04;;;;;;;2.40;1.70;;;;;;;-147.86;100.00;-17609.17;105496;1257;63149;-56
2024/02/19 06:18:33;;;;;;;1.50;1.40;;;;;;;-147.86;100.00;-17609.17;105527;1260;71390;-54
2024/02/19 06:21:01;;;;;;;0.90;0.60;;;;;;;-147.86;100.00;-17609.17;105509;1263;59761;-55
2024/02/19 06:23:29;;;;;;;0.60;0.50;;;;;;;-147.86;100.00;-17609.17;105543;1260;59667;-54
2024/02/19 06:25:58;;;;;;;0.80;0.80;;;;;;;-147.86;100.00;-17609.17;105530;1259;71875;-56
2024/02/19 06:28:25;;;;;;;0.70;0.70;;;;;;;-147.86;100.00;-17609.17;105494;1256;63113;-55
2024/02/19 06:30:53;;;;;;;3.20;1.30;;;;;;;-147.86;100.00;-17609.17;105501;1262;72658;-58
2024/02/19 06:33:21;;;;;;;2.00;0.70;;;;;;;-147.86;100.00;-17609.17;105540;1259;59835;-57
2024/02/19 06:35:49;;;;;;;3.10;0.70;;;;;;;-147.86;100.00;-17609.17;105301;1264;59536;-54
2024/02/19 06:38:16;;;;;;;0.60;0.60;;;;;;;-147.86;100.00;-17609.17;105494;1259;71849;-56
2024/02/19 06:40:44;;;;;;;0.30;0.30;;;;;;;-147.86;100.00;-17559.25;105503;1262;63358;-58
2024/02/19 06:43:12;;;;;;;0.60;0.60;;;;;;;-147.86;100.00;-16028.40;105522;1258;72702;-56
2024/02/19 06:45:40;;;;;;;2.50;0.70;;;;;;;-147.86;100.00;-13757.06;105519;1258;59669;-55
2024/02/19 06:48:08;;;;;;;0.80;0.50;;;;;;;-147.86;100.00;-11286.64;105507;1262;59622;-55
2024/02/19 06:50:36;;;;;;;1.90;0.50;;;;;;;-147.86;100.00;-8517.86;105553;1257;72013;-55
2024/02/19 06:53:06;;;;;;;0.60;0.50;;;;;;;-147.86;100.00;-1884.22;105593;1256;63002;-52
2024/02/19 06:55:33;;;;;;;1.10;0.50;;;;;;;-147.86;99.52;6349.17;105507;1257;71593;-52
2024/02/19 06:58:01;;;;;;;0.60;0.50;;;;;;;-147.86;98.75;14052.66;105615;1262;60396;-54
2024/02/19 07:00:29;;;;;;;0.60;0.60;;;;;;;-147.86;97.57;26690.56;105511;1257;59847;-55
2024/02/19 07:02:57;;;;;;;0.80;0.80;;;;;;;-147.86;97.02;34865.32;105519;1258;74093;-52
2024/02/19 07:05:25;;;;;;;0.50;0.50;;;;;;;-147.86;96.54;38489.16;105489;1257;63226;-50
2024/02/19 07:07:53;;;;;;;1.20;0.60;;;;;;;-147.86;95.68;42058.41;105563;1260;71389;-53
2024/02/19 07:10:21;;;;;;;0.70;0.40;;;;;;;-147.86;93.36;45575.99;105524;1262;61477;-54
2024/02/19 07:12:49;;;;;;;0.50;0.50;;;;;;;-147.86;90.36;46501.92;105526;1256;59586;-53
2024/02/19 07:15:17;;;;;;;3.30;0.90;;;;;;;-147.86;89.82;46629.29;105529;1258;73019;-55
2024/02/19 07:17:45;;;;;;;0.40;0.40;;;;;;;-147.86;87.78;46583.04;105531;1259;63127;-53
2024/02/19 07:20:14;;;;;;;0.80;0.80;;;;;;;-147.86;82.73;46581.09;105535;1260;71428;-54
2024/02/19 07:22:41;;;;;;;0.20;0.20;;;;;;;-147.86;79.31;46644.97;105747;1254;59688;-56
2024/02/19 07:25:09;;;;;;;0.40;0.40;;;;;;;-147.86;77.57;46733.54;105685;1257;59560;-56
2024/02/19 07:27:47;;;;;;;0.20;0.20;;;;;;;-147.86;73.30;46833.49;105709;1253;73580;-53
2024/02/19 07:30:16;;;;;;;0.40;0.40;;;;;;;-147.86;73.42;46911.48;105695;1257;66640;-56
2024/02/19 07:32:43;;;;;;;0.30;0.30;;;;;;;-147.86;73.35;46990.27;105699;1257;72711;-54
2024/02/19 07:35:12;;;;;;;0.60;0.30;;;;;;;-147.86;71.17;47056.50;105696;1254;59669;-56
2024/02/19 07:37:41;;;;;;;1.20;0.40;;;;;;;-147.86;71.76;47083.94;105730;1255;62033;-55
2024/02/19 07:40:09;;;;;;;0.80;0.40;;;;;;;-147.86;71.67;47123.53;105717;1253;74049;-54
2024/02/19 07:42:37;;;;;;;0.90;0.50;;;;;;;-147.86;71.11;47158.41;105737;1254;63148;-56
2024/02/19 07:45:06;;;;;;;1.80;0.30;;;;;;;-147.86;69.82;47227.41;105692;1251;74925;-55
2024/02/19 07:47:34;;;;;;;0.30;0.30;;;;;;;-147.86;69.69;47265.81;105709;1253;59786;-54
2024/02/19 07:50:03;;;;;;;0.80;0.70;;;;;;;-147.86;69.42;47327.75;105751;1257;59909;-55
2024/02/19 07:52:31;;;;;;;1.20;0.60;;;;;;;-147.86;70.75;47363.02;105763;1254;71774;-55
2024/02/19 07:54:59;;;;;;;1.10;0.80;;;;;;;-147.86;69.31;47392.43;105766;1253;63093;-56
2024/02/19 07:57:27;;;;;;;0.40;0.40;;;;;;;-147.86;66.70;47422.61;105672;1257;72674;-55
2024/02/19 07:59:55;;;;;;;0.30;0.30;;;;;;;-147.86;64.53;47475.14;105709;1253;59718;-53
2024/02/19 08:02:23;;;;;;;2.20;0.70;;;;;;;-147.86;63.45;47544.52;105680;1253;61130;-56
2024/02/19 08:04:51;;;;;;;0.60;0.30;;;;;;;-147.86;63.22;47605.68;105754;1253;73322;-53
2024/02/19 08:07:19;;;;;;;0.20;0.20;;;;;;;-147.86;64.30;47662.91;105674;1257;66475;-57
2024/02/19 08:09:47;;;;;;;1.20;0.70;;;;;;;-147.86;65.30;47704.86;105674;1254;73055;-53
2024/02/19 08:12:15;;;;;;;0.50;0.50;;;;;;;-147.86;66.11;47727.59;105705;1253;59667;-54
2024/02/19 08:14:43;;;;;;;0.40;0.40;;;;;;;-147.86;66.39;47758.95;105715;1257;59667;-54
2024/02/19 08:17:10;;;;;;;1.30;0.90;;;;;;;-147.86;65.68;47783.26;105690;1255;71604;-54
2024/02/19 08:19:39;;;;;;;1.90;0.70;;;;;;;-147.86;65.57;47809.52;105667;1254;63207;-55
2024/02/19 08:22:07;;;;;;;1.60;0.50;;;;;;;-147.86;61.08;47831.88;105691;1257;72691;-54
2024/02/19 08:24:38;;;;;;;0.20;0.20;;;;;;;-147.86;59.71;47900.87;105672;1256;59627;-55
2024/02/19 08:27:08;;;;;;;0.30;0.30;;;;;;;-147.86;61.34;47944.79;105734;1257;59720;-56
2024/02/19 08:29:35;;;;;;;0.90;0.30;;;;;;;-147.86;61.04;47985.16;105886;1257;73049;-53
2024/02/19 08:32:04;;;;;;;0.40;0.30;;;;;;;-147.86;60.31;48020.05;105711;1256;64344;-55
2024/02/19 08:34:32;;;;;;;0.50;0.40;;;;;;;-147.86;58.97;48060.82;105677;1253;71525;-56
2024/02/19 08:37:00;;;;;;;1.60;0.40;;;;;;;-147.86;57.72;48120.42;105748;1257;61363;-51
2024/02/19 08:39:28;;;;;;;0.40;0.30;;;;;;;-147.86;57.80;48167.86;105695;1257;59868;-55
2024/02/19 08:41:56;;;;;;;0.30;0.30;;;;;;;-147.86;57.76;48220.80;105854;1257;72980;-53
2024/02/19 08:44:24;;;;;;;0.50;0.50;;;;;;;-147.86;58.23;48242.36;105701;1255;64539;-55
2024/02/19 08:46:52;;;;;;;1.00;0.60;;;;;;;-147.86;59.15;48261.57;105661;1253;71438;-54
2024/02/19 08:49:20;;;;;;;0.60;0.60;;;;;;;-147.86;60.27;48272.16;105694;1252;59635;-55
2024/02/19 08:51:48;;;;;;;0.30;0.30;;;;;;;-147.86;59.79;48259.21;105692;1253;62333;-54
2024/02/19 08:54:16;;;;;;;1.40;0.30;;;;;;;-147.86;57.37;48277.64;105646;1253;72951;-52
2024/02/19 08:56:44;;;;;;;1.20;1.00;;;;;;;-147.86;54.32;48320.38;105673;1255;63375;-52
2024/02/19 08:59:12;;;;;;;1.20;0.40;;;;;;;-147.86;53.25;48388.21;105707;1253;71382;-55
2024/02/19 09:01:39;;;;;;;0.60;0.30;;;;;;;-147.86;52.14;48453.69;105685;1252;60712;-57
2024/02/19 09:04:08;;;;;;;0.20;0.20;;;;;;;-147.86;52.16;48520.35;105732;1253;61116;-57
2024/02/19 09:06:36;;;;;;;0.50;0.50;;;;;;;-147.86;51.80;48571.32;105655;1257;73079;-54
2024/02/19 09:09:04;;;;;;;0.40;0.40;;;;;;;-147.86;52.17;48597.99;105711;1256;64632;-57
2024/02/19 09:11:32;;;;;;;1.30;0.40;;;;;;;-147.86;51.74;48653.66;105856;1257;74727;-56
2024/02/19 09:14:01;;;;;;;0.40;0.40;;;;;;;-147.86;49.89;48746.60;105668;1257;60419;-54
2024/02/19 09:16:28;;;;;;;0.60;0.60;;;;;;;-147.86;50.51;48791.30;105720;1253;60645;-55
2024/02/19 09:18:56;;;;;;;0.40;0.40;;;;;;;-147.86;50.69;48869.34;105722;1253;74012;-57
2024/02/19 09:21:24;;;;;;;3.00;0.30;;;;;;;-147.86;51.18;48908.16;105666;1257;63121;-57
2024/02/19 09:23:52;;;;;;;0.90;0.50;;;;;;;-147.86;50.64;48965.80;105654;1253;72506;-50
2024/02/19 09:26:19;;;;;;;1.10;0.50;;;;;;;-147.86;52.07;48994.82;105687;1257;60531;-52
2024/02/19 09:28:47;;;;;;;2.50;0.50;;;;;;;-147.86;54.63;49000.31;105738;1253;60564;-51
2024/02/19 09:58:19;;;;;;;4.10;1.60;;;;;;;-147.86;47.61;48764.74;102615;1292;601062;-57
2024/02/19 10:00:47;;;;;;;1.80;1.10;;;;;;;-147.86;47.24;49288.55;105043;1262;59248;-55
2024/02/19 10:03:18;;;;;;;1.30;0.60;;;;;;;-147.86;47.47;49345.03;105212;1268;59651;-55
2024/02/19 10:05:45;;;;;;;0.80;0.80;;;;;;;-147.86;47.63;49391.30;105198;1263;72137;-58
2024/02/19 10:08:15;;;;;;;0.60;0.60;;;;;;;-147.86;48.45;49399.54;105195;1267;65466;-52
2024/02/19 10:10:43;;;;;;;3.70;0.70;;;;;;;-147.86;49.44;49389.35;105136;1267;73228;-55
2024/02/19 10:13:13;;;;;;;1.50;1.30;;;;;;;-147.86;50.74;49355.23;105042;1265;59312;-55
2024/02/19 10:15:41;;;;;;;2.50;2.10;;;;;;;-147.86;51.06;49367.38;105289;1260;61292;-55
2024/02/19 10:18:22;;;;;;;1.20;1.10;;;;;;;-147.86;50.68;49388.95;105263;1260;74157;-57
2024/02/19 10:20:53;;;;;;;3.20;2.80;;;;;;;-147.86;50.16;49397.58;105248;1265;66662;-50
2024/02/19 10:23:20;;;;;;;1.30;1.20;;;;;;;-147.86;48.90;49405.43;105250;1265;72829;-54
2024/02/19 10:25:51;;;;;;;0.20;0.20;;;;;;;-147.86;49.59;49441.90;105243;1262;59897;-52
2024/02/19 10:28:23;;;;;;;0.60;0.50;;;;;;;-147.86;48.90;49438.76;105266;1265;59772;-53
2024/02/19 10:30:51;;;;;;;0.60;0.50;;;;;;;-147.86;48.27;49454.84;105276;1260;75298;-51
2024/02/19 10:33:19;;;;;;;0.80;0.50;;;;;;;-147.86;47.13;49513.67;105242;1265;64816;-57
2024/02/19 10:35:48;;;;;;;0.20;0.20;;;;;;;-147.86;45.83;49547.01;105250;1260;72722;-54
2024/02/19 10:38:18;;;;;;;0.40;0.40;;;;;;;-147.86;44.53;49599.57;105252;1265;61530;-50
2024/02/19 10:40:47;;;;;;;1.20;0.50;;;;;;;-147.86;45.19;49644.28;105219;1260;60065;-58
2024/02/19 10:43:17;;;;;;;1.10;0.90;;;;;;;-147.86;46.53;49641.93;105236;1260;74551;-55
2024/02/19 10:45:50;;;;;;;0.50;0.50;;;;;;;-147.86;47.46;49633.69;105266;1260;66720;-55
2024/02/19 10:48:19;;;;;;;0.40;0.40;;;;;;;-147.86;47.68;49625.45;105224;1261;72580;-56
2024/02/19 10:50:50;;;;;;;0.50;0.50;;;;;;;-147.86;47.28;49649.77;105254;1264;61529;-56
2024/02/19 10:53:19;;;;;;;0.80;0.40;;;;;;;-147.86;46.24;49643.49;105255;1260;59793;-55
2024/02/19 10:55:50;;;;;;;2.80;0.80;;;;;;;-147.86;46.74;49650.55;105206;1263;72913;-53
2024/02/19 10:58:25;;;;;;;0.80;0.40;;;;;;;-147.86;47.21;49648.59;105214;1263;64122;-52
2024/02/19 11:00:53;;;;;;;0.40;0.40;;;;;;;-147.86;47.62;49651.73;105242;1265;74547;-54
2024/02/19 11:03:24;;;;;;;0.80;0.80;;;;;;;-147.86;49.09;49645.85;105072;1263;59859;-54
2024/02/19 11:05:53;;;;;;;1.00;0.80;;;;;;;-147.86;50.06;49629.77;105310;1260;61941;-59
2024/02/19 11:08:24;;;;;;;1.30;1.20;;;;;;;-147.86;50.46;49620.36;105255;1265;73844;-56
2024/02/19 11:10:55;;;;;;;1.00;1.00;;;;;;;-147.86;50.75;49613.29;105284;1263;64369;-59
2024/02/19 11:13:26;;;;;;;6.00;1.80;;;;;;;-147.86;50.73;49588.98;105283;1259;72406;-54
2024/02/19 11:15:55;;;;;;;1.00;0.90;;;;;;;-147.86;50.54;49604.66;105236;1262;59763;-53
2024/02/19 11:18:23;;;;;;;2.80;1.10;;;;;;;-147.86;50.25;49632.51;105331;1259;62102;-56
2024/02/19 11:20:51;;;;;;;1.20;1.10;;;;;;;-147.86;50.23;49610.95;105244;1259;72958;-55
2024/02/19 11:23:20;;;;;;;1.30;0.80;;;;;;;-147.86;50.74;49610.95;105246;1264;66614;-57
2024/02/19 11:25:48;;;;;;;1.00;0.50;;;;;;;-147.86;50.96;49605.84;105248;1259;74939;-57
2024/02/19 11:28:16;;;;;;;0.60;0.60;;;;;;;-147.86;51.04;49596.82;105230;1260;59679;-54
2024/02/19 11:30:44;;;;;;;1.70;1.20;;;;;;;-147.86;51.04;49550.54;105245;1265;60799;-56